Berga II — 7TQI — position and weather

sailwx.info

Track history (hours):
 
Tides and Currents Weather Stations Pressure Air Temp Water Temp Dewpoint Dewpoint Depression Visibility Wind Speed Wind Dir Waves Ship Positions

Berga II

Last reported at 2018-Aug-14 01:32 UTC. Time now 2018-Aug-18 02:47 UTC.
Position N 35°49' W 000°15'.

Length 174 m; draft 6.9 m.

Type: Ship (hazmat cat B). MMSI: 605076051.

Date/timePositionNaut miles runAvg speedWind from/ knotsBaromVisibWave heightAir tempDewpointWater temp
2018-Aug-14 01:32N 35°49' W 000°15'0 0.0
2018-Aug-14 01:26N 35°49' W 000°15'2 0.1
2018-Aug-13 00:54N 35°51' W 000°15'0 0.0
2018-Aug-12 16:00N 35°51' W 000°16'0 0.0
2018-Aug-12 15:18N 35°51' W 000°16'54 6.6
2018-Aug-12 07:06N 36°44' E 000°01'214.7
2018-Aug-12 07:00N 36°45' E 000°01'714.7
2018-Aug-12 06:30N 36°52' E 000°04'814.6
2018-Aug-12 05:56N 37°00' E 000°06'614.5
2018-Aug-12 05:30N 37°06' E 000°08'714.4
2018-Aug-12 05:00N 37°13' E 000°10'  
2018-Aug-05 13:29N 41°02' E 001°18'612.0
2018-Aug-05 13:00N 40°56' E 001°20'612.6
2018-Aug-05 12:31N 40°52' E 001°25'612.6
2018-Aug-05 12:00N 40°46' E 001°30'612.6
2018-Aug-05 11:31N 40°41' E 001°35'612.4
2018-Aug-05 11:01N 40°35' E 001°33'4712.6
2018-Aug-05 07:16N 39°51' E 001°09'313.1
2018-Aug-05 07:00N 39°48' E 001°07'713.1
2018-Aug-05 06:30N 39°42' E 001°04'6112.8
2018-Aug-05 01:44N 38°45' E 000°37'312.9
2018-Aug-05 01:30N 38°42' E 000°36'612.1
2018-Aug-05 01:00N 38°36' E 000°34'1211.0
2018-Aug-04 23:56N 38°25' E 000°31'4913.9
2018-Aug-04 20:25N 37°37' E 000°16'813.4
2018-Aug-04 19:49N 37°29' E 000°14'413.5
2018-Aug-04 19:30N 37°25' E 000°13'713.7
2018-Aug-04 19:00N 37°18' E 000°12'713.9
2018-Aug-04 18:30N 37°11' E 000°09'713.9
2018-Aug-04 18:00N 37°05' E 000°07'714.1
2018-Aug-04 17:30N 36°58' E 000°06'714.2
2018-Aug-04 17:00N 36°51' E 000°04'714.1
2018-Aug-04 16:31N 36°44' E 000°03'713.9
2018-Aug-04 16:00N 36°37' W 000°00'714.0
2018-Aug-04 15:30N 36°31' W 000°02'714.4
2018-Aug-04 15:00N 36°23' W 000°04'714.9
2018-Aug-04 14:31N 36°16' W 000°06'915.4
2018-Aug-04 13:55N 36°07' W 000°08'715.3
2018-Aug-04 13:29N 36°01' W 000°10'1013.7
2018-Aug-04 12:45N 35°51' W 000°13'2 7.3
2018-Aug-04 12:30N 35°49' W 000°14'  
Track history (hours):
 
Tides and Currents Weather Stations Pressure Air Temp Water Temp Dewpoint Dewpoint Depression Visibility Wind Speed Wind Dir Waves Ship Positions

Berga II

Last reported at 2018-Aug-14 01:32 UTC. Time now 2018-Aug-18 02:47 UTC.
Position N 35°49' W 000°15'.

Length 174 m; draft 6.9 m.

Type: Ship (hazmat cat B). MMSI: 605076051.

Date/timePositionNaut miles runAvg speedWind from/ knotsBaromVisibWave heightAir tempDewpointWater temp
2018-Aug-14 01:32N 35°49' W 000°15'0 0.0
2018-Aug-14 01:26N 35°49' W 000°15'2 0.1
2018-Aug-13 00:54N 35°51' W 000°15'0 0.0
2018-Aug-12 16:00N 35°51' W 000°16'0 0.0
2018-Aug-12 15:18N 35°51' W 000°16'54 6.6
2018-Aug-12 07:06N 36°44' E 000°01'214.7
2018-Aug-12 07:00N 36°45' E 000°01'714.7
2018-Aug-12 06:30N 36°52' E 000°04'814.6
2018-Aug-12 05:56N 37°00' E 000°06'614.5
2018-Aug-12 05:30N 37°06' E 000°08'714.4
2018-Aug-12 05:00N 37°13' E 000°10'  
2018-Aug-05 13:29N 41°02' E 001°18'612.0
2018-Aug-05 13:00N 40°56' E 001°20'612.6
2018-Aug-05 12:31N 40°52' E 001°25'612.6
2018-Aug-05 12:00N 40°46' E 001°30'612.6
2018-Aug-05 11:31N 40°41' E 001°35'612.4
2018-Aug-05 11:01N 40°35' E 001°33'4712.6
2018-Aug-05 07:16N 39°51' E 001°09'313.1
2018-Aug-05 07:00N 39°48' E 001°07'713.1
2018-Aug-05 06:30N 39°42' E 001°04'6112.8
2018-Aug-05 01:44N 38°45' E 000°37'312.9
2018-Aug-05 01:30N 38°42' E 000°36'612.1
2018-Aug-05 01:00N 38°36' E 000°34'1211.0
2018-Aug-04 23:56N 38°25' E 000°31'4913.9
2018-Aug-04 20:25N 37°37' E 000°16'813.4
2018-Aug-04 19:49N 37°29' E 000°14'413.5
2018-Aug-04 19:30N 37°25' E 000°13'713.7
2018-Aug-04 19:00N 37°18' E 000°12'713.9
2018-Aug-04 18:30N 37°11' E 000°09'713.9
2018-Aug-04 18:00N 37°05' E 000°07'714.1
2018-Aug-04 17:30N 36°58' E 000°06'714.2
2018-Aug-04 17:00N 36°51' E 000°04'714.1
2018-Aug-04 16:31N 36°44' E 000°03'713.9
2018-Aug-04 16:00N 36°37' W 000°00'714.0
2018-Aug-04 15:30N 36°31' W 000°02'714.4
2018-Aug-04 15:00N 36°23' W 000°04'714.9
2018-Aug-04 14:31N 36°16' W 000°06'915.4
2018-Aug-04 13:55N 36°07' W 000°08'715.3
2018-Aug-04 13:29N 36°01' W 000°10'1013.7
2018-Aug-04 12:45N 35°51' W 000°13'2 7.3
2018-Aug-04 12:30N 35°49' W 000°14'  

Dump ship's entire track history